createdAt,value
2018-09-19T00:02:37.533Z,5.83
2018-09-19T00:07:39.691Z,4.97
2018-09-19T00:12:41.866Z,6.50
2018-09-19T00:17:44.131Z,5.10
2018-09-19T00:22:46.289Z,5.53
2018-09-19T00:27:48.488Z,5.60
2018-09-19T00:32:50.647Z,4.87
2018-09-19T00:37:52.796Z,5.30
2018-09-19T00:42:55.033Z,4.73
2018-09-19T00:47:57.162Z,4.80
2018-09-19T00:52:59.360Z,4.97
2018-09-19T00:58:01.469Z,5.40
2018-09-19T01:03:03.670Z,5.53
2018-09-19T01:08:05.856Z,4.63
2018-09-19T01:13:07.990Z,3.80
2018-09-19T01:18:10.097Z,6.30
2018-09-19T01:23:12.253Z,4.27
2018-09-19T01:28:14.394Z,5.93
2018-09-19T01:33:16.517Z,4.00
2018-09-19T01:38:18.701Z,5.23
2018-09-19T01:43:20.868Z,4.17
2018-09-19T01:48:22.994Z,5.00
2018-09-19T01:53:25.152Z,5.33
2018-09-19T01:58:27.323Z,5.13
2018-09-19T02:03:29.543Z,5.87
2018-09-19T02:08:31.702Z,5.20
2018-09-19T02:13:34.380Z,5.07
2018-09-19T02:18:36.551Z,5.33
2018-09-19T02:23:38.690Z,5.00
2018-09-19T02:28:40.923Z,6.20
2018-09-19T02:33:42.949Z,4.80
2018-09-19T02:38:45.089Z,5.10
2018-09-19T02:43:47.857Z,5.67
2018-09-19T02:48:50.036Z,5.50
2018-09-19T02:53:52.181Z,5.20
2018-09-19T02:58:54.323Z,5.43
2018-09-19T03:03:56.435Z,5.10
2018-09-19T03:08:58.583Z,5.83
2018-09-19T03:14:00.763Z,4.67
2018-09-19T03:19:02.913Z,5.10
2018-09-19T03:24:05.062Z,4.93
2018-09-19T03:29:07.249Z,5.00
2018-09-19T03:34:09.380Z,4.67
2018-09-19T03:39:11.776Z,4.33
2018-09-19T03:44:14.001Z,5.53
2018-09-19T03:49:16.142Z,6.00
2018-09-19T03:54:18.289Z,5.20
2018-09-19T03:59:20.889Z,5.27
2018-09-19T04:04:23.031Z,6.00
2018-09-19T04:09:25.139Z,5.80
2018-09-19T04:14:27.297Z,4.37
2018-09-19T04:19:29.405Z,5.30
2018-09-19T04:24:31.575Z,5.53
2018-09-19T04:29:33.737Z,4.50
2018-09-19T04:34:35.860Z,6.30
2018-09-19T04:39:37.983Z,5.17
2018-09-19T04:44:40.143Z,5.43
2018-09-19T04:49:42.278Z,5.87
2018-09-19T04:54:44.638Z,5.10
2018-09-19T04:59:46.781Z,5.70
2018-09-19T05:04:48.916Z,5.17
2018-09-19T05:09:51.079Z,6.67
2018-09-19T05:14:53.229Z,4.57
2018-09-19T05:19:55.397Z,5.00
2018-09-19T05:24:57.557Z,5.90
2018-09-19T05:29:59.691Z,5.13
2018-09-19T05:35:01.917Z,4.63
2018-09-19T05:40:04.197Z,5.07
2018-09-19T05:45:06.381Z,4.63
2018-09-19T05:50:08.582Z,5.40
2018-09-19T05:55:10.754Z,5.47
2018-09-19T06:00:12.927Z,5.67
2018-09-19T06:05:15.077Z,5.63
2018-09-19T06:10:17.264Z,5.93
2018-09-19T06:15:19.408Z,5.53
2018-09-19T06:20:21.559Z,4.60
2018-09-19T06:25:23.734Z,5.83
2018-09-19T06:30:25.871Z,6.20
2018-09-19T06:35:28.028Z,5.63
2018-09-19T06:40:30.263Z,4.67
2018-09-19T06:45:32.413Z,6.33
2018-09-19T06:50:34.548Z,6.00
2018-09-19T06:55:36.797Z,5.60
2018-09-19T07:00:38.937Z,6.60
2018-09-19T07:05:41.119Z,9.03
2018-09-19T07:10:43.328Z,7.40
2018-09-19T07:15:45.418Z,6.97
2018-09-19T07:20:47.583Z,7.50
2018-09-19T07:25:49.723Z,8.77
2018-09-19T07:30:52.157Z,8.63
2018-09-19T07:35:54.283Z,9.20
2018-09-19T07:40:56.416Z,9.17
2018-09-19T07:45:58.592Z,10.63
2018-09-19T07:51:00.726Z,7.77
2018-09-19T07:56:03.416Z,9.07
2018-09-19T08:01:05.617Z,8.90
2018-09-19T08:06:07.784Z,10.73
2018-09-19T08:11:09.972Z,9.43
2018-09-19T08:16:12.132Z,10.10
2018-09-19T08:21:14.294Z,9.70
2018-09-19T08:26:16.415Z,10.37
2018-09-19T08:31:18.554Z,9.83
2018-09-19T08:36:20.721Z,7.50
2018-09-19T08:41:22.900Z,8.60
2018-09-19T08:46:25.045Z,8.80
2018-09-19T08:51:27.176Z,8.40
2018-09-19T08:56:29.326Z,5.87
2018-09-19T09:01:31.464Z,7.13
2018-09-19T09:06:33.637Z,7.80
2018-09-19T09:11:36.128Z,6.23
2018-09-19T09:16:38.283Z,6.83
2018-09-19T09:21:40.472Z,6.60
2018-09-19T09:26:42.623Z,5.50
2018-09-19T09:31:44.799Z,5.37
2018-09-19T09:36:46.958Z,4.47
2018-09-19T09:41:49.360Z,4.53
2018-09-19T09:46:51.581Z,5.07
2018-09-19T09:51:53.753Z,4.97
2018-09-19T09:56:55.924Z,3.53
2018-09-19T10:01:58.074Z,3.87
2018-09-19T10:07:00.224Z,3.47
2018-09-19T10:12:02.431Z,4.03
2018-09-19T10:17:04.703Z,4.27
2018-09-19T10:22:06.874Z,3.30
2018-09-19T10:27:08.993Z,3.67
2018-09-19T10:32:11.150Z,4.03
2018-09-19T10:37:13.256Z,3.47
2018-09-19T10:42:15.429Z,3.67
2018-09-19T10:47:17.607Z,3.77
2018-09-19T10:52:19.795Z,3.97
2018-09-19T10:57:21.930Z,3.87
2018-09-19T11:02:24.145Z,3.60
2018-09-19T11:07:26.315Z,3.57
2018-09-19T11:12:28.495Z,3.37
2018-09-19T11:17:30.608Z,4.00
2018-09-19T11:22:32.779Z,3.30
2018-09-19T11:27:35.035Z,3.87
2018-09-19T11:32:37.232Z,4.03
2018-09-19T11:37:39.423Z,3.57
2018-09-19T11:42:41.562Z,3.90
2018-09-19T11:47:43.740Z,4.07
2018-09-19T11:52:45.888Z,3.03
2018-09-19T11:57:48.046Z,3.90
2018-09-19T12:02:50.209Z,3.60
2018-09-19T12:07:52.347Z,3.70
2018-09-19T12:12:54.475Z,4.23
2018-09-19T12:17:56.611Z,3.83
2018-09-19T12:22:58.757Z,3.90
2018-09-19T12:28:00.867Z,4.20
2018-09-19T12:33:03.346Z,4.33
2018-09-19T12:38:05.510Z,4.57
2018-09-19T12:43:07.654Z,4.07
2018-09-19T12:48:09.961Z,3.70
2018-09-19T12:53:12.199Z,4.00
2018-09-19T12:58:14.327Z,4.10
2018-09-19T13:03:16.554Z,3.60
2018-09-19T13:08:18.730Z,3.30
2018-09-19T13:13:20.921Z,3.47
2018-09-19T13:18:23.144Z,3.77
2018-09-19T13:23:25.299Z,3.43
2018-09-19T13:28:27.469Z,3.17
2018-09-19T13:33:30.213Z,3.53
2018-09-19T13:38:32.335Z,2.57
2018-09-19T13:43:34.506Z,3.60
2018-09-19T13:48:37.035Z,2.67
2018-09-19T13:53:39.295Z,3.15
2018-09-19T13:58:41.466Z,3.20
2018-09-19T14:03:43.622Z,3.50
2018-09-19T14:08:45.802Z,2.43
2018-09-19T14:13:47.965Z,2.70
2018-09-19T14:18:50.138Z,2.00
2018-09-19T14:23:52.606Z,2.80
2018-09-19T14:28:54.750Z,2.13
2018-09-19T14:33:56.938Z,2.90
2018-09-19T14:38:59.084Z,2.03
2018-09-19T14:44:02.875Z,2.30
2018-09-19T14:49:05.774Z,2.37
2018-09-19T14:54:07.928Z,2.60
2018-09-19T14:59:10.145Z,2.87
2018-09-19T15:04:12.305Z,1.90
2018-09-19T15:09:14.513Z,2.60
2018-09-19T15:14:16.674Z,2.57
2018-09-19T15:19:18.823Z,2.80
2018-09-19T15:24:21.213Z,3.20
2018-09-19T15:29:23.344Z,3.33
2018-09-19T15:34:25.526Z,3.47
2018-09-19T15:39:28.985Z,3.40
2018-09-19T15:44:31.232Z,3.97
2018-09-19T15:49:33.371Z,4.00
2018-09-19T15:54:35.542Z,4.20
2018-09-19T15:59:37.666Z,4.10
2018-09-19T16:04:39.810Z,3.50
2018-09-19T16:09:42.061Z,3.87
2018-09-19T16:14:44.244Z,3.90
2018-09-19T16:19:46.428Z,3.90
2018-09-19T16:24:48.718Z,3.67
2018-09-19T16:29:51.011Z,4.30
2018-09-19T16:34:53.250Z,3.90
2018-09-19T16:39:55.497Z,6.60
2018-09-19T16:44:57.627Z,21.73
2018-09-19T16:50:00.517Z,17.53
2018-09-19T16:55:02.741Z,7.03
2018-09-19T17:00:06.363Z,4.80
2018-09-19T17:05:08.598Z,7.03
2018-09-19T17:10:10.764Z,9.20
2018-09-19T17:15:13.135Z,8.17
2018-09-19T17:20:15.330Z,8.27
2018-09-19T17:25:17.570Z,8.50
2018-09-19T17:30:20.579Z,7.93
2018-09-19T17:35:22.796Z,7.20
2018-09-19T17:40:25.029Z,6.97
2018-09-19T17:45:27.296Z,7.07
2018-09-19T17:50:29.542Z,7.23
2018-09-19T17:55:31.829Z,6.07
2018-09-19T18:00:34.123Z,6.33
2018-09-19T18:05:36.348Z,5.60
2018-09-19T18:10:38.641Z,7.07
2018-09-19T18:15:41.996Z,6.87
2018-09-19T18:20:44.296Z,6.70
2018-09-19T18:25:46.600Z,7.33
2018-09-19T18:30:49.301Z,7.33
2018-09-19T18:35:51.629Z,5.93
2018-09-19T18:40:53.916Z,7.67
2018-09-19T18:45:56.339Z,6.13
2018-09-19T18:50:58.898Z,6.47
2018-09-19T18:56:01.881Z,6.40
2018-09-19T19:01:04.376Z,7.67
2018-09-19T19:06:06.918Z,6.73
2018-09-19T19:11:10.728Z,8.20
2018-09-19T19:16:13.899Z,7.23
2018-09-19T19:21:16.692Z,7.30
2018-09-19T19:26:20.498Z,7.00
2018-09-19T19:31:22.987Z,6.33
2018-09-19T19:36:26.645Z,7.50
2018-09-19T19:41:29.261Z,7.20
2018-09-19T19:46:33.143Z,7.13
2018-09-19T19:51:35.673Z,6.80
2018-09-19T19:56:37.997Z,7.00
2018-09-19T20:01:40.369Z,8.40
2018-09-19T20:06:42.721Z,8.37
2018-09-19T20:11:45.074Z,7.63
2018-09-19T20:16:47.273Z,7.43
2018-09-19T20:21:50.626Z,7.70
2018-09-19T20:26:52.875Z,8.03
2018-09-19T20:31:55.056Z,7.80
2018-09-19T20:36:59.309Z,6.40
2018-09-19T20:42:01.561Z,6.17
2018-09-19T20:47:03.852Z,5.43
2018-09-19T20:52:06.063Z,5.53
2018-09-19T20:57:08.300Z,5.47
2018-09-19T21:02:10.494Z,5.00
2018-09-19T21:07:12.667Z,5.10
2018-09-19T21:12:14.848Z,5.93
2018-09-19T21:17:17.131Z,5.70
2018-09-19T21:22:19.591Z,4.70
2018-09-19T21:27:21.518Z,5.60
2018-09-19T21:32:23.768Z,5.50
2018-09-19T21:37:25.950Z,5.53
2018-09-19T21:42:28.146Z,5.63
2018-09-19T21:47:30.332Z,5.40
2018-09-19T21:52:32.521Z,4.77
2018-09-19T21:57:34.654Z,4.50
2018-09-19T22:02:36.783Z,5.17
2018-09-19T22:07:38.929Z,5.70
2018-09-19T22:12:41.373Z,5.40
2018-09-19T22:17:43.529Z,4.90
2018-09-19T22:22:45.696Z,4.27
2018-09-19T22:27:47.843Z,4.00
2018-09-19T22:32:49.979Z,4.00
2018-09-19T22:37:52.104Z,4.57
2018-09-19T22:42:54.257Z,4.70
2018-09-19T22:47:56.435Z,3.73
2018-09-19T22:52:58.619Z,4.10
2018-09-19T22:58:00.758Z,3.90
2018-09-19T23:03:02.885Z,4.70
2018-09-19T23:08:05.026Z,4.37
2018-09-19T23:13:07.164Z,4.30
2018-09-19T23:18:09.286Z,4.87
2018-09-19T23:23:11.576Z,3.63
2018-09-19T23:28:13.717Z,4.40
2018-09-19T23:33:15.851Z,3.87
2018-09-19T23:38:17.985Z,3.50
2018-09-19T23:43:20.092Z,3.37
2018-09-19T23:48:22.241Z,4.20
2018-09-19T23:53:24.419Z,4.10
2018-09-19T23:58:26.549Z,3.37
